createdAt,value
2017-03-11T00:00:01.865Z,1021.76
2017-03-11T00:01:13.335Z,1021.72
2017-03-11T00:02:24.784Z,1021.72
2017-03-11T00:03:36.256Z,1021.68
2017-03-11T00:04:47.686Z,1021.66
2017-03-11T00:05:59.326Z,1021.63
2017-03-11T00:07:10.781Z,1021.64
2017-03-11T00:08:22.416Z,1021.65
2017-03-11T00:09:33.877Z,1021.63
2017-03-11T00:10:45.363Z,1021.58
2017-03-11T00:11:56.816Z,1021.58
2017-03-11T00:13:08.283Z,1021.61
2017-03-11T00:14:19.735Z,1021.62
2017-03-11T00:15:31.411Z,1021.6
2017-03-11T00:16:42.855Z,1021.58
2017-03-11T00:17:54.323Z,1021.63
2017-03-11T00:19:05.778Z,1021.61
2017-03-11T00:20:17.415Z,1021.58
2017-03-11T00:21:28.843Z,1021.6
2017-03-11T00:22:40.281Z,1021.61
2017-03-11T00:23:51.715Z,1021.61
2017-03-11T00:25:03.193Z,1021.61
2017-03-11T00:26:14.630Z,1021.59
2017-03-11T00:27:26.077Z,1021.57
2017-03-11T00:28:37.510Z,1021.56
2017-03-11T00:29:48.971Z,1021.56
2017-03-11T00:31:00.618Z,1021.53
2017-03-11T00:32:12.103Z,1021.52
2017-03-11T00:33:23.547Z,1021.46
2017-03-11T00:34:34.988Z,1021.48
2017-03-11T00:35:46.437Z,1021.48
2017-03-11T00:36:57.889Z,1021.49
2017-03-11T00:38:09.575Z,1021.47
2017-03-11T00:39:21.014Z,1021.47
2017-03-11T00:40:32.453Z,1021.52
2017-03-11T00:41:44.125Z,1021.52
2017-03-11T00:42:55.567Z,1021.51
2017-03-11T00:44:07.003Z,1021.57
2017-03-11T00:45:18.432Z,1021.55
2017-03-11T00:46:29.892Z,1021.58
2017-03-11T00:47:41.773Z,1021.53
2017-03-11T00:48:53.234Z,1021.51
2017-03-11T00:50:04.673Z,1021.57
2017-03-11T00:51:16.105Z,1021.59
2017-03-11T00:52:27.550Z,1021.6
2017-03-11T00:53:38.984Z,1021.58
2017-03-11T00:54:50.641Z,1021.55
2017-03-11T00:56:02.081Z,1021.57
2017-03-11T00:57:13.527Z,1021.55
2017-03-11T00:58:25.166Z,1021.56
2017-03-11T00:59:36.624Z,1021.55
2017-03-11T01:00:48.097Z,1021.58
2017-03-11T01:01:59.538Z,1021.54
2017-03-11T01:03:10.991Z,1021.61
2017-03-11T01:04:22.667Z,1021.57
2017-03-11T01:05:34.296Z,1021.55
2017-03-11T01:06:45.737Z,1021.56
2017-03-11T01:07:57.184Z,1021.58
2017-03-11T01:09:08.652Z,1021.56
2017-03-11T01:10:20.110Z,1021.53
2017-03-11T01:11:31.749Z,1021.57
2017-03-11T01:12:43.226Z,1021.49
2017-03-11T01:13:54.660Z,1021.41
2017-03-11T01:15:06.113Z,1021.44
2017-03-11T01:16:17.549Z,1021.38
2017-03-11T01:17:29.404Z,1021.34
2017-03-11T01:18:41.069Z,1021.31
2017-03-11T01:19:52.502Z,1021.28
2017-03-11T01:21:03.945Z,1021.23
2017-03-11T01:22:15.407Z,1021.22
2017-03-11T01:23:26.833Z,1021.22
2017-03-11T01:24:38.276Z,1021.16
2017-03-11T01:25:49.702Z,1021.07
2017-03-11T01:27:01.346Z,1021.09
2017-03-11T01:28:12.780Z,1021.11
2017-03-11T01:29:24.230Z,1021.11
2017-03-11T01:30:35.855Z,1021.07
2017-03-11T01:31:47.300Z,1020.96
2017-03-11T01:32:58.767Z,1020.98
2017-03-11T01:34:10.215Z,1020.92
2017-03-11T01:35:21.714Z,1020.86
2017-03-11T01:36:33.166Z,1020.87
2017-03-11T01:37:44.603Z,1020.8
2017-03-11T01:38:56.044Z,1020.72
2017-03-11T01:40:07.489Z,1020.73
2017-03-11T01:41:18.930Z,1020.72
2017-03-11T01:42:30.375Z,1020.7
2017-03-11T01:43:41.853Z,1020.71
2017-03-11T01:44:53.358Z,1020.68
2017-03-11T01:46:05.025Z,1020.64
2017-03-11T01:47:16.472Z,1020.63
2017-03-11T01:48:27.922Z,1020.65
2017-03-11T01:49:39.552Z,1020.7
2017-03-11T01:50:50.998Z,1020.68
2017-03-11T01:52:02.655Z,1020.67
2017-03-11T01:53:14.095Z,1020.64
2017-03-11T01:54:25.530Z,1020.6
2017-03-11T01:55:37.283Z,1020.59
2017-03-11T01:56:48.716Z,1020.54
2017-03-11T01:58:00.154Z,1020.55
2017-03-11T01:59:11.629Z,1020.55
2017-03-11T02:00:23.097Z,1020.52
2017-03-11T02:01:34.536Z,1020.5
2017-03-11T02:02:45.985Z,1020.57
2017-03-11T02:03:57.630Z,1020.57
2017-03-11T02:05:09.078Z,1020.56
2017-03-11T02:06:20.714Z,1020.52
2017-03-11T02:07:32.155Z,1020.54
2017-03-11T02:08:43.591Z,1020.51
2017-03-11T02:09:55.021Z,1020.47
2017-03-11T02:11:06.457Z,1020.46
2017-03-11T02:12:17.940Z,1020.49
2017-03-11T02:13:29.366Z,1020.5
2017-03-11T02:14:40.827Z,1020.51
2017-03-11T02:15:52.280Z,1020.51
2017-03-11T02:17:03.701Z,1020.47
2017-03-11T02:18:15.155Z,1020.47
2017-03-11T02:19:26.616Z,1020.42
2017-03-11T02:20:38.275Z,1020.38
2017-03-11T02:21:49.757Z,1020.43
2017-03-11T02:23:01.213Z,1020.42
2017-03-11T02:24:12.642Z,1020.37
2017-03-11T02:25:24.069Z,1020.38
2017-03-11T02:26:35.524Z,1020.35
2017-03-11T02:27:46.958Z,1020.35
2017-03-11T02:28:58.394Z,1020.33
2017-03-11T02:30:10.068Z,1020.39
2017-03-11T02:31:21.543Z,1020.34
2017-03-11T02:32:32.984Z,1020.36
2017-03-11T02:33:44.439Z,1020.38
2017-03-11T02:34:55.884Z,1020.35
2017-03-11T02:36:07.321Z,1020.4
2017-03-11T02:37:18.985Z,1020.32
2017-03-11T02:38:30.419Z,1020.34
2017-03-11T02:39:41.848Z,1020.32
2017-03-11T02:40:53.295Z,1020.35
2017-03-11T02:42:04.945Z,1020.28
2017-03-11T02:43:16.380Z,1020.28
2017-03-11T02:44:27.807Z,1020.23
2017-03-11T02:45:39.277Z,1020.22
2017-03-11T02:46:50.706Z,1020.21
2017-03-11T02:48:02.169Z,1020.24
2017-03-11T02:49:13.601Z,1020.23
2017-03-11T02:50:25.055Z,1020.21
2017-03-11T02:51:36.499Z,1020.24
2017-03-11T02:52:47.950Z,1020.23
2017-03-11T02:53:59.394Z,1020.21
2017-03-11T02:55:10.826Z,1020.23
2017-03-11T02:56:22.253Z,1020.18
2017-03-11T02:57:33.890Z,1020.21
2017-03-11T02:58:45.330Z,1020.16
2017-03-11T02:59:56.781Z,1020.16
2017-03-11T03:01:08.222Z,1020.11
2017-03-11T03:02:20.056Z,1020.15
2017-03-11T03:03:31.501Z,1020.12
2017-03-11T03:04:42.955Z,1020.1
2017-03-11T03:05:54.394Z,1020.12
2017-03-11T03:07:05.854Z,1020.09
2017-03-11T03:08:17.558Z,1020.08
2017-03-11T03:09:29.194Z,1020.02
2017-03-11T03:10:40.626Z,1020.04
2017-03-11T03:11:52.069Z,1020.01
2017-03-11T03:13:03.489Z,1020.01
2017-03-11T03:14:14.925Z,1020
2017-03-11T03:15:26.612Z,1020.06
2017-03-11T03:16:38.077Z,1020.04
2017-03-11T03:17:49.506Z,1020.07
2017-03-11T03:19:00.950Z,1020.05
2017-03-11T03:20:12.379Z,1020.06
2017-03-11T03:21:23.806Z,1020.06
2017-03-11T03:22:35.244Z,1020.08
2017-03-11T03:23:46.937Z,1020.09
2017-03-11T03:24:58.358Z,1020.07
2017-03-11T03:26:09.788Z,1020.07
2017-03-11T03:27:21.424Z,1020.08
2017-03-11T03:28:32.844Z,1020.06
2017-03-11T03:29:44.270Z,1020.04
2017-03-11T03:30:55.711Z,1020.05
2017-03-11T03:32:07.367Z,1020.05
2017-03-11T03:33:18.833Z,1020.06
2017-03-11T03:34:30.527Z,1020.1
2017-03-11T03:35:42.566Z,1020.03
2017-03-11T03:36:54.232Z,1020.04
2017-03-11T03:38:05.877Z,1020.06
2017-03-11T03:39:17.327Z,1020
2017-03-11T03:40:28.762Z,1019.98
2017-03-11T03:41:40.210Z,1019.98
2017-03-11T03:42:51.662Z,1019.96
2017-03-11T03:44:03.090Z,1020.03
2017-03-11T03:45:14.528Z,1020.01
2017-03-11T03:46:26.189Z,1020.02
2017-03-11T03:47:37.654Z,1019.97
2017-03-11T03:48:49.107Z,1019.93
2017-03-11T03:50:00.593Z,1019.93
2017-03-11T03:51:12.303Z,1019.91
2017-03-11T03:52:23.954Z,1019.89
2017-03-11T03:53:35.413Z,1019.92
2017-03-11T03:54:46.864Z,1019.92
2017-03-11T03:55:58.315Z,1019.9
2017-03-11T03:57:09.751Z,1019.89
2017-03-11T03:58:21.197Z,1019.91
2017-03-11T03:59:32.843Z,1019.93
2017-03-11T04:00:44.350Z,1019.91
2017-03-11T04:01:55.792Z,1019.88
2017-03-11T04:03:07.240Z,1019.88
2017-03-11T04:04:18.671Z,1019.87
2017-03-11T04:05:30.111Z,1019.85
2017-03-11T04:06:41.760Z,1019.85
2017-03-11T04:07:53.218Z,1019.82
2017-03-11T04:09:04.668Z,1019.82
2017-03-11T04:10:16.121Z,1019.87
2017-03-11T04:11:27.634Z,1019.84
2017-03-11T04:12:39.069Z,1019.85
2017-03-11T04:13:50.499Z,1019.88
2017-03-11T04:15:01.976Z,1019.89
2017-03-11T04:16:13.431Z,1019.91
2017-03-11T04:17:24.859Z,1019.89
2017-03-11T04:18:36.322Z,1019.84
2017-03-11T04:19:47.967Z,1019.87
2017-03-11T04:20:59.606Z,1019.82
2017-03-11T04:22:11.055Z,1019.8
2017-03-11T04:23:22.501Z,1019.79
2017-03-11T04:24:33.947Z,1019.81
2017-03-11T04:25:45.388Z,1019.82
2017-03-11T04:26:56.831Z,1019.79
2017-03-11T04:28:08.264Z,1019.82
2017-03-11T04:29:19.707Z,1019.78
2017-03-11T04:30:31.166Z,1019.71
2017-03-11T04:31:42.667Z,1019.68
2017-03-11T04:32:54.308Z,1019.65
2017-03-11T04:34:05.736Z,1019.68
2017-03-11T04:35:17.387Z,1019.67
2017-03-11T04:36:29.015Z,1019.69
2017-03-11T04:37:40.659Z,1019.69
2017-03-11T04:38:52.110Z,1019.72
2017-03-11T04:40:03.535Z,1019.67
2017-03-11T04:41:15.171Z,1019.66
2017-03-11T04:42:26.618Z,1019.65
2017-03-11T04:43:38.064Z,1019.64
2017-03-11T04:44:49.527Z,1019.63
2017-03-11T04:46:00.953Z,1019.61
2017-03-11T04:47:12.674Z,1019.6
2017-03-11T04:48:24.324Z,1019.61
2017-03-11T04:49:35.984Z,1019.58
2017-03-11T04:50:47.655Z,1019.58
2017-03-11T04:51:59.298Z,1019.58
2017-03-11T04:53:10.736Z,1019.59
2017-03-11T04:54:22.377Z,1019.57
2017-03-11T04:55:33.822Z,1019.56
2017-03-11T04:56:45.266Z,1019.56
2017-03-11T04:57:56.698Z,1019.57
2017-03-11T04:59:08.532Z,1019.52
2017-03-11T05:00:19.980Z,1019.5
2017-03-11T05:01:31.631Z,1019.5
2017-03-11T05:02:43.530Z,1019.47
2017-03-11T05:03:54.974Z,1019.46
2017-03-11T05:05:06.401Z,1019.41
2017-03-11T05:06:17.837Z,1019.4
2017-03-11T05:07:29.307Z,1019.35
2017-03-11T05:08:40.749Z,1019.32
2017-03-11T05:09:52.409Z,1019.3
2017-03-11T05:11:03.830Z,1019.29
2017-03-11T05:12:15.479Z,1019.29
2017-03-11T05:13:26.957Z,1019.31
2017-03-11T05:14:38.389Z,1019.33
2017-03-11T05:15:49.845Z,1019.29
2017-03-11T05:17:01.292Z,1019.28
2017-03-11T05:18:12.736Z,1019.3
2017-03-11T05:19:24.362Z,1019.31
2017-03-11T05:20:36.007Z,1019.25
2017-03-11T05:21:47.455Z,1019.23
2017-03-11T05:22:58.893Z,1019.21
2017-03-11T05:24:10.332Z,1019.23
2017-03-11T05:25:22.009Z,1019.22
2017-03-11T05:26:33.465Z,1019.23
2017-03-11T05:27:45.118Z,1019.19
2017-03-11T05:28:56.579Z,1019.19
2017-03-11T05:30:08.038Z,1019.17
2017-03-11T05:31:19.464Z,1019.18
2017-03-11T05:32:30.900Z,1019.13
2017-03-11T05:33:42.342Z,1019.13
2017-03-11T05:34:53.838Z,1019.15
2017-03-11T05:36:05.280Z,1019.11
2017-03-11T05:37:16.740Z,1019.07
2017-03-11T05:38:28.208Z,1019.05
2017-03-11T05:39:39.853Z,1019.04
2017-03-11T05:40:51.293Z,1019.01
2017-03-11T05:42:02.769Z,1018.98
2017-03-11T05:43:14.216Z,1019
2017-03-11T05:44:25.663Z,1018.99
2017-03-11T05:45:37.131Z,1019.02
2017-03-11T05:46:48.559Z,1019.06
2017-03-11T05:48:00.013Z,1019.06
2017-03-11T05:49:11.452Z,1019.07
2017-03-11T05:50:22.906Z,1019.08
2017-03-11T05:51:34.346Z,1019.08
2017-03-11T05:52:45.991Z,1019.06
2017-03-11T05:53:57.612Z,1019.05
2017-03-11T05:55:09.266Z,1019.03
2017-03-11T05:56:20.692Z,1019.06
2017-03-11T05:57:32.140Z,1019.09
2017-03-11T05:58:43.579Z,1019.1
2017-03-11T05:59:55.007Z,1019.08
2017-03-11T06:01:06.471Z,1019.07
2017-03-11T06:02:17.921Z,1019.06
2017-03-11T06:03:29.341Z,1019.08
2017-03-11T06:04:40.794Z,1019.05
2017-03-11T06:05:52.247Z,1019.11
2017-03-11T06:07:03.697Z,1019.08
2017-03-11T06:08:15.340Z,1019.12
2017-03-11T06:09:26.787Z,1019.16
2017-03-11T06:10:38.213Z,1019.18
2017-03-11T06:11:49.855Z,1019.06
2017-03-11T06:13:01.288Z,1019.14
2017-03-11T06:14:12.936Z,1019.15
2017-03-11T06:15:24.583Z,1019.18
2017-03-11T06:16:36.221Z,1019.16
2017-03-11T06:17:47.666Z,1019.17
2017-03-11T06:18:59.110Z,1019.12
2017-03-11T06:20:10.567Z,1019.17
2017-03-11T06:21:22.203Z,1019.17
2017-03-11T06:22:33.682Z,1019.16
2017-03-11T06:23:45.134Z,1019.18
2017-03-11T06:24:56.605Z,1019.18
2017-03-11T06:26:08.055Z,1019.2
2017-03-11T06:27:19.500Z,1019.22
2017-03-11T06:28:30.943Z,1019.22
2017-03-11T06:29:42.371Z,1019.24
2017-03-11T06:30:54.013Z,1019.21
2017-03-11T06:32:05.650Z,1019.28
2017-03-11T06:33:17.500Z,1019.28
2017-03-11T06:34:29.141Z,1019.29
2017-03-11T06:35:40.573Z,1019.29
2017-03-11T06:36:52.424Z,1019.29
2017-03-11T06:38:03.875Z,1019.28
2017-03-11T06:39:15.618Z,1019.28
2017-03-11T06:40:27.072Z,1019.27
2017-03-11T06:41:38.725Z,1019.3
2017-03-11T06:42:50.369Z,1019.25
2017-03-11T06:44:01.792Z,1019.21
2017-03-11T06:45:13.450Z,1019.23
2017-03-11T06:46:24.873Z,1019.2
2017-03-11T06:47:36.522Z,1019.17
2017-03-11T06:48:48.168Z,1019.19
2017-03-11T06:49:59.633Z,1019.17
2017-03-11T06:51:11.308Z,1019.18
2017-03-11T06:52:22.749Z,1019.22
2017-03-11T06:53:34.182Z,1019.25
2017-03-11T06:54:45.632Z,1019.25
2017-03-11T06:55:57.281Z,1019.25
2017-03-11T06:57:08.733Z,1019.22
2017-03-11T06:58:20.186Z,1019.29
2017-03-11T06:59:31.835Z,1019.3
2017-03-11T07:00:43.268Z,1019.31
2017-03-11T07:01:55.116Z,1019.3
2017-03-11T07:03:06.796Z,1019.27
2017-03-11T07:04:18.233Z,1019.25
2017-03-11T07:05:29.873Z,1019.23
2017-03-11T07:06:41.326Z,1019.28
2017-03-11T07:07:52.757Z,1019.27
2017-03-11T07:09:04.180Z,1019.29
2017-03-11T07:10:15.641Z,1019.17
2017-03-11T07:11:27.067Z,1019.23
2017-03-11T07:12:38.518Z,1019.2
2017-03-11T07:13:50.179Z,1019.22
2017-03-11T07:15:01.639Z,1019.25
2017-03-11T07:16:13.087Z,1019.28
2017-03-11T07:17:24.566Z,1019.28
2017-03-11T07:18:36.027Z,1019.26
2017-03-11T07:19:47.754Z,1019.27
2017-03-11T07:20:59.399Z,1019.27
2017-03-11T07:22:11.240Z,1019.25
2017-03-11T07:23:22.668Z,1019.22
2017-03-11T07:24:34.321Z,1019.17
2017-03-11T07:25:45.772Z,1019.12
2017-03-11T07:26:57.206Z,1019.11
2017-03-11T07:28:08.665Z,1019.11
2017-03-11T07:29:20.154Z,1019.08
2017-03-11T07:30:31.663Z,1019.11
2017-03-11T07:31:43.104Z,1019.15
2017-03-11T07:32:54.549Z,1019.11
2017-03-11T07:34:05.983Z,1019.12
2017-03-11T07:35:17.436Z,1019.1
2017-03-11T07:36:28.902Z,1019.16
2017-03-11T07:37:40.342Z,1019.17
2017-03-11T07:38:51.773Z,1019.16
2017-03-11T07:40:03.229Z,1019.13
2017-03-11T07:41:14.886Z,1019.16
2017-03-11T07:42:26.581Z,1019.17
2017-03-11T07:43:38.039Z,1019.21
2017-03-11T07:44:49.687Z,1019.16
2017-03-11T07:46:01.127Z,1019.18
2017-03-11T07:47:12.765Z,1019.12
2017-03-11T07:48:24.234Z,1019.13
2017-03-11T07:49:35.878Z,1019.14
2017-03-11T07:50:47.345Z,1019.16
2017-03-11T07:51:59.064Z,1019.09
2017-03-11T07:53:10.515Z,1019.09
2017-03-11T07:54:22.172Z,1019.07
2017-03-11T07:55:33.817Z,1019.06
2017-03-11T07:56:45.457Z,1019.07
2017-03-11T07:57:57.105Z,1019.07
2017-03-11T07:59:08.747Z,1019.1
2017-03-11T08:00:20.189Z,1019.09
2017-03-11T08:01:31.658Z,1019.15
2017-03-11T08:02:43.383Z,1019.12
2017-03-11T08:03:54.876Z,1019.13
2017-03-11T08:05:06.543Z,1019.16
2017-03-11T08:06:18.185Z,1019.12
2017-03-11T08:07:29.643Z,1019.1
2017-03-11T08:08:41.102Z,1019.18
2017-03-11T08:09:52.559Z,1019.22
2017-03-11T08:11:04.035Z,1019.21
2017-03-11T08:12:15.510Z,1019.2
2017-03-11T08:13:26.953Z,1019.25
2017-03-11T08:14:38.410Z,1019.24
2017-03-11T08:15:50.280Z,1019.3
2017-03-11T08:17:01.731Z,1019.23
2017-03-11T08:18:13.179Z,1019.24
2017-03-11T08:19:24.647Z,1019.25
2017-03-11T08:20:36.310Z,1019.29
2017-03-11T08:21:47.778Z,1019.27
2017-03-11T08:22:59.237Z,1019.32
2017-03-11T08:24:10.696Z,1019.3
2017-03-11T08:25:22.163Z,1019.26
2017-03-11T08:26:33.854Z,1019.28
2017-03-11T08:27:45.304Z,1019.26
2017-03-11T08:28:56.987Z,1019.24
2017-03-11T08:30:08.449Z,1019.26
2017-03-11T08:31:20.117Z,1019.25
2017-03-11T08:32:31.584Z,1019.26
2017-03-11T08:33:43.099Z,1019.21
2017-03-11T08:34:54.769Z,1019.29
2017-03-11T08:36:06.254Z,1019.25
2017-03-11T08:37:17.919Z,1019.22
2017-03-11T08:38:29.374Z,1019.21
2017-03-11T08:39:40.827Z,1019.18
2017-03-11T08:40:52.295Z,1019.19
2017-03-11T08:42:03.988Z,1019.19
2017-03-11T08:43:15.466Z,1019.24
2017-03-11T08:44:27.126Z,1019.17
2017-03-11T08:45:38.821Z,1019.21
2017-03-11T08:46:50.300Z,1019.22
2017-03-11T08:48:01.986Z,1019.27
2017-03-11T08:49:13.457Z,1019.27
2017-03-11T08:50:24.972Z,1019.25
2017-03-11T08:51:36.445Z,1019.27
2017-03-11T08:52:47.940Z,1019.28
2017-03-11T08:53:59.605Z,1019.35
2017-03-11T08:55:11.073Z,1019.36
2017-03-11T08:56:22.772Z,1019.37
2017-03-11T08:57:34.253Z,1019.31
2017-03-11T08:58:45.731Z,1019.35
2017-03-11T08:59:57.253Z,1019.35
2017-03-11T09:01:08.739Z,1019.35
2017-03-11T09:02:20.404Z,1019.34
2017-03-11T09:03:31.860Z,1019.3
2017-03-11T09:04:43.514Z,1019.31
2017-03-11T09:05:54.977Z,1019.29
2017-03-11T09:07:06.478Z,1019.36
2017-03-11T09:08:17.939Z,1019.32
2017-03-11T09:09:29.420Z,1019.35
2017-03-11T09:10:40.878Z,1019.28
2017-03-11T09:11:52.341Z,1019.28
2017-03-11T09:13:03.812Z,1019.26
2017-03-11T09:14:15.286Z,1019.26
2017-03-11T09:15:26.791Z,1019.3
2017-03-11T09:16:38.243Z,1019.25
2017-03-11T09:17:49.708Z,1019.28
2017-03-11T09:19:01.183Z,1019.26
2017-03-11T09:20:12.677Z,1019.26
2017-03-11T09:21:24.356Z,1019.29
2017-03-11T09:22:36.020Z,1019.26
2017-03-11T09:23:47.487Z,1019.26
2017-03-11T09:24:58.960Z,1019.24
2017-03-11T09:26:10.503Z,1019.22
2017-03-11T09:27:22.182Z,1019.2
2017-03-11T09:28:33.656Z,1019.22
2017-03-11T09:29:45.512Z,1019.2
2017-03-11T09:30:57.186Z,1019.24
2017-03-11T09:32:08.650Z,1019.24
2017-03-11T09:33:20.135Z,1019.21
2017-03-11T09:34:31.620Z,1019.16
2017-03-11T09:35:43.101Z,1019.19
2017-03-11T09:36:54.609Z,1019.17
2017-03-11T09:38:06.256Z,1019.13
2017-03-11T09:39:17.732Z,1019.09
2017-03-11T09:40:29.230Z,1019.09
2017-03-11T09:41:40.703Z,1019.08
2017-03-11T09:42:52.207Z,1019.1
2017-03-11T09:44:03.660Z,1019.13
2017-03-11T09:45:15.114Z,1019.1
2017-03-11T09:46:26.585Z,1019.08
2017-03-11T09:47:38.238Z,1019.04
2017-03-11T09:48:49.715Z,1019.05
2017-03-11T09:50:01.378Z,1019.06
2017-03-11T09:51:12.858Z,1019.06
2017-03-11T09:52:24.336Z,1019.15
2017-03-11T09:53:36.098Z,1019.2
2017-03-11T09:54:47.557Z,1019.41
2017-03-11T09:55:59.013Z,1020.06
2017-03-11T09:57:10.486Z,1021.1
2017-03-11T09:58:21.965Z,1022.38
2017-03-11T09:59:33.826Z,1022.71
2017-03-11T10:00:45.522Z,1022.78
2017-03-11T10:01:57.011Z,1021.78
2017-03-11T10:03:08.793Z,1020.31
2017-03-11T10:04:20.671Z,1019.55
2017-03-11T10:05:32.133Z,1019.3
2017-03-11T10:06:43.629Z,1019.25
2017-03-11T10:07:55.521Z,1019.19
2017-03-11T10:09:06.993Z,1019.02
2017-03-11T10:10:18.497Z,1019.04
2017-03-11T10:11:30.378Z,1019.03
2017-03-11T10:12:41.824Z,1018.99
2017-03-11T10:13:53.343Z,1018.95
2017-03-11T10:15:04.814Z,1018.95
2017-03-11T10:16:16.310Z,1018.91
2017-03-11T10:17:27.770Z,1018.92
2017-03-11T10:18:39.222Z,1018.93
2017-03-11T10:19:50.701Z,1018.93
2017-03-11T10:21:02.203Z,1018.88
2017-03-11T10:22:13.678Z,1018.84
2017-03-11T10:23:25.352Z,1018.83
2017-03-11T10:24:36.819Z,1018.82
2017-03-11T10:25:48.294Z,1018.86
2017-03-11T10:26:59.746Z,1018.86
2017-03-11T10:28:11.229Z,1018.89
2017-03-11T10:29:22.702Z,1018.87
2017-03-11T10:30:34.197Z,1018.89
2017-03-11T10:31:45.653Z,1018.89
2017-03-11T10:32:57.118Z,1018.88
2017-03-11T10:34:08.580Z,1018.86
2017-03-11T10:35:20.114Z,1018.87
2017-03-11T10:36:31.602Z,1018.86
2017-03-11T10:37:43.098Z,1018.83
2017-03-11T10:38:54.574Z,1018.8
2017-03-11T10:40:06.227Z,1018.82
2017-03-11T10:41:18.015Z,1018.82
2017-03-11T10:42:29.478Z,1018.79
2017-03-11T10:43:41.154Z,1018.83
2017-03-11T10:44:52.627Z,1018.82
2017-03-11T10:46:04.107Z,1018.84
2017-03-11T10:47:15.769Z,1018.87
2017-03-11T10:48:27.227Z,1018.89
2017-03-11T10:49:38.670Z,1018.87
2017-03-11T10:50:50.170Z,1018.88
2017-03-11T10:52:01.823Z,1018.9
2017-03-11T10:53:13.277Z,1018.88
2017-03-11T10:54:24.935Z,1018.84
2017-03-11T10:55:36.391Z,1018.9
2017-03-11T10:56:47.879Z,1018.89
2017-03-11T10:57:59.357Z,1018.87
2017-03-11T10:59:10.814Z,1018.8
2017-03-11T11:00:22.298Z,1018.81
2017-03-11T11:01:33.779Z,1018.77
2017-03-11T11:02:45.257Z,1018.77
2017-03-11T11:03:56.732Z,1018.73
2017-03-11T11:05:08.195Z,1018.76
2017-03-11T11:06:19.646Z,1018.75
2017-03-11T11:07:31.127Z,1018.7
2017-03-11T11:08:42.605Z,1018.73
2017-03-11T11:09:54.074Z,1018.71
2017-03-11T11:11:05.577Z,1018.7
2017-03-11T11:12:17.045Z,1018.73
2017-03-11T11:13:28.509Z,1018.72
2017-03-11T11:14:39.969Z,1018.68
2017-03-11T11:15:51.634Z,1018.65
2017-03-11T11:17:03.104Z,1018.65
2017-03-11T11:18:14.580Z,1018.61
2017-03-11T11:19:26.044Z,1018.58
2017-03-11T11:20:37.719Z,1018.51
2017-03-11T11:21:49.414Z,1018.45
2017-03-11T11:23:01.289Z,1018.39
2017-03-11T11:24:12.760Z,1018.42
2017-03-11T11:25:24.226Z,1018.42
2017-03-11T11:26:35.708Z,1018.39
2017-03-11T11:27:47.203Z,1018.41
2017-03-11T11:28:58.886Z,1018.41
2017-03-11T11:30:10.363Z,1018.4
2017-03-11T11:31:22.043Z,1018.38
2017-03-11T11:32:33.498Z,1018.39
2017-03-11T11:33:45.145Z,1018.33
2017-03-11T11:34:56.822Z,1018.33
2017-03-11T11:36:08.304Z,1018.33
2017-03-11T11:37:19.806Z,1018.29
2017-03-11T11:38:31.487Z,1018.28
2017-03-11T11:39:42.937Z,1018.22
2017-03-11T11:40:54.399Z,1018.18
2017-03-11T11:42:05.851Z,1018.13
2017-03-11T11:43:17.314Z,1018.11
2017-03-11T11:44:28.778Z,1018.09
2017-03-11T11:45:40.230Z,1018.08
2017-03-11T11:46:51.694Z,1018.11
2017-03-11T11:48:03.214Z,1018.12
2017-03-11T11:49:14.694Z,1018.07
2017-03-11T11:50:26.148Z,1018.01
2017-03-11T11:51:37.615Z,1018.03
2017-03-11T11:52:49.066Z,1018.01
2017-03-11T11:54:00.530Z,1018.03
2017-03-11T11:55:12.011Z,1017.97
2017-03-11T11:56:23.490Z,1017.99
2017-03-11T11:57:34.952Z,1017.99
2017-03-11T11:58:46.465Z,1017.94
2017-03-11T11:59:57.954Z,1017.93
2017-03-11T12:01:09.423Z,1017.94
2017-03-11T12:02:20.879Z,1017.95
2017-03-11T12:03:32.330Z,1017.95
2017-03-11T12:04:43.801Z,1017.92
2017-03-11T12:05:55.247Z,1017.95
2017-03-11T12:07:06.708Z,1017.91
2017-03-11T12:08:18.223Z,1017.94
2017-03-11T12:09:29.659Z,1017.9
2017-03-11T12:10:41.383Z,1017.89
2017-03-11T12:11:52.854Z,1017.85
2017-03-11T12:13:04.512Z,1017.81
2017-03-11T12:14:16.175Z,1017.77
2017-03-11T12:15:27.646Z,1017.74
2017-03-11T12:16:39.119Z,1017.72
2017-03-11T12:17:50.593Z,1017.69
2017-03-11T12:19:02.081Z,1017.64
2017-03-11T12:20:13.578Z,1017.61
2017-03-11T12:21:25.065Z,1017.59
2017-03-11T12:22:36.511Z,1017.6
2017-03-11T12:23:48.026Z,1017.59
2017-03-11T12:24:59.502Z,1017.61
2017-03-11T12:26:10.976Z,1017.57
2017-03-11T12:27:22.426Z,1017.57
2017-03-11T12:28:33.877Z,1017.57
2017-03-11T12:29:45.358Z,1017.51
2017-03-11T12:30:57.085Z,1017.51
2017-03-11T12:32:08.543Z,1017.52
2017-03-11T12:33:20.008Z,1017.52
2017-03-11T12:34:31.459Z,1017.44
2017-03-11T12:35:42.951Z,1017.46
2017-03-11T12:36:54.424Z,1017.42
2017-03-11T12:38:05.885Z,1017.36
2017-03-11T12:39:17.341Z,1017.33
2017-03-11T12:40:28.792Z,1017.36
2017-03-11T12:41:40.496Z,1017.35
2017-03-11T12:42:52.188Z,1017.33
2017-03-11T12:44:03.643Z,1017.33
2017-03-11T12:45:15.307Z,1017.38
2017-03-11T12:46:26.770Z,1017.4
2017-03-11T12:47:38.557Z,1017.34
2017-03-11T12:48:50.018Z,1017.34
2017-03-11T12:50:01.484Z,1017.35
2017-03-11T12:51:12.928Z,1017.36
2017-03-11T12:52:24.578Z,1017.36
2017-03-11T12:53:36.043Z,1017.31
2017-03-11T12:54:47.501Z,1017.33
2017-03-11T12:55:58.962Z,1017.31
2017-03-11T12:57:10.405Z,1017.31
2017-03-11T12:58:21.859Z,1017.26
2017-03-11T12:59:33.526Z,1017.2
2017-03-11T13:00:44.987Z,1017.18
2017-03-11T13:01:56.695Z,1017.16
2017-03-11T13:03:08.144Z,1017.12
2017-03-11T13:04:19.831Z,1017.15
2017-03-11T13:05:31.277Z,1017.17
2017-03-11T13:06:42.765Z,1017.17
2017-03-11T13:07:54.211Z,1017.17
2017-03-11T13:09:05.690Z,1017.17
2017-03-11T13:10:17.147Z,1017.13
2017-03-11T13:11:28.593Z,1017.16
2017-03-11T13:12:40.267Z,1017.11
2017-03-11T13:13:51.909Z,1017.11
2017-03-11T13:15:03.360Z,1017.12
2017-03-11T13:16:14.823Z,1017.09
2017-03-11T13:17:26.463Z,1017.12
2017-03-11T13:18:38.425Z,1017.11
2017-03-11T13:19:49.892Z,1017.1
2017-03-11T13:21:01.561Z,1017.12
2017-03-11T13:22:13.026Z,1017.13
2017-03-11T13:23:24.480Z,1017.13
2017-03-11T13:24:35.948Z,1017.13
2017-03-11T13:25:47.392Z,1017.15
2017-03-11T13:26:58.868Z,1017.12
2017-03-11T13:28:10.539Z,1017.08
2017-03-11T13:29:22.202Z,1017.06
2017-03-11T13:30:33.663Z,1017.02
2017-03-11T13:31:45.356Z,1017.05
2017-03-11T13:32:56.828Z,1017
2017-03-11T13:34:08.277Z,1016.95
2017-03-11T13:35:19.738Z,1016.92
2017-03-11T13:36:31.180Z,1016.94
2017-03-11T13:37:42.853Z,1016.96
2017-03-11T13:38:54.802Z,1016.98
2017-03-11T13:40:06.253Z,1016.95
2017-03-11T13:41:17.697Z,1016.95
2017-03-11T13:42:29.146Z,1016.93
2017-03-11T13:43:40.792Z,1016.9
2017-03-11T13:44:52.251Z,1016.88
2017-03-11T13:46:03.693Z,1016.84
2017-03-11T13:47:15.568Z,1016.84
2017-03-11T13:48:27.020Z,1016.81
2017-03-11T13:49:38.676Z,1016.85
2017-03-11T13:50:50.344Z,1016.86
2017-03-11T13:52:01.785Z,1016.8
2017-03-11T13:53:13.435Z,1016.84
2017-03-11T13:54:25.136Z,1016.83
2017-03-11T13:55:36.590Z,1016.85
2017-03-11T13:56:48.032Z,1016.8
2017-03-11T13:57:59.498Z,1016.78
2017-03-11T13:59:10.940Z,1016.8
2017-03-11T14:00:22.389Z,1016.84
2017-03-11T14:01:33.847Z,1016.81
2017-03-11T14:02:45.315Z,1016.78
2017-03-11T14:03:57.050Z,1016.78
2017-03-11T14:05:08.525Z,1016.77
2017-03-11T14:06:19.986Z,1016.74
2017-03-11T14:07:31.659Z,1016.73
2017-03-11T14:08:43.110Z,1016.7
2017-03-11T14:09:54.571Z,1016.71
2017-03-11T14:11:06.030Z,1016.71
2017-03-11T14:12:17.882Z,1016.73
2017-03-11T14:13:29.537Z,1016.69
2017-03-11T14:14:40.995Z,1016.66
2017-03-11T14:15:52.452Z,1016.72
2017-03-11T14:17:03.910Z,1016.73
2017-03-11T14:18:15.358Z,1016.7
2017-03-11T14:19:26.815Z,1016.68
2017-03-11T14:20:38.256Z,1016.69
2017-03-11T14:21:49.691Z,1016.67
2017-03-11T14:23:01.367Z,1016.69
2017-03-11T14:24:12.815Z,1016.66
2017-03-11T14:25:24.253Z,1016.64
2017-03-11T14:26:35.754Z,1016.6
2017-03-11T14:27:47.211Z,1016.62